Time,TemperatureF,DewpointF,PressureIn,WindDirection,WindDirectionDegrees,WindSpeedMPH,WindSpeedGustMPH,Humidity,HourlyPrecipIn,Conditions,Clouds,dailyrainin,SoftwareType,DateUTC
2013-06-20 00:04:00,52.7,28.3,30.09,NNW,337,0.0,0.0,39,0.00,,,0.00,WUHU21623XXSP,2013-06-20 07:04:00,
2013-06-20 00:09:00,52.5,28.2,30.09,WNW,292,0.0,0.0,39,0.00,,,0.00,WUHU21623XXSP,2013-06-20 07:09:00,
2013-06-20 00:14:00,52.5,28.2,30.08,North,0,0.0,0.0,39,0.00,,,0.00,WUHU21623XXSP,2013-06-20 07:14:00,
2013-06-20 00:19:00,52.3,28.7,30.08,NNE,22,0.0,0.0,40,0.00,,,0.00,WUHU21623XXSP,2013-06-20 07:19:00,
2013-06-20 00:24:00,52.3,28.7,30.08,NNW,337,0.0,0.0,40,0.00,,,0.00,WUHU21623XXSP,2013-06-20 07:24:00,
2013-06-20 00:29:00,52.3,28.0,30.08,NW,315,0.0,0.0,39,0.00,,,0.00,WUHU21623XXSP,2013-06-20 07:29:00,
2013-06-20 00:39:00,52.0,27.7,30.08,North,0,0.0,0.0,39,0.00,,,0.00,WUHU21623XXSP,2013-06-20 07:39:00,
2013-06-20 00:50:00,51.4,27.2,30.08,North,0,0.0,0.0,39,0.00,,,0.00,WUHU21623XXSP,2013-06-20 07:50:00,
2013-06-20 00:55:00,51.3,27.1,30.09,North,0,0.0,0.0,39,0.00,,,0.00,WUHU21623XXSP,2013-06-20 07:55:00,
2013-06-20 01:00:00,51.1,26.9,30.09,South,180,0.0,0.0,39,0.00,,,0.00,WUHU21623XXSP,2013-06-20 08:00:00,
2013-06-20 01:05:00,50.7,25.9,30.09,SSE,157,0.0,0.0,38,0.00,,,0.00,WUHU21623XXSP,2013-06-20 08:05:00,
2013-06-20 01:10:00,50.4,25.6,30.09,South,180,0.0,0.0,38,0.00,,,0.00,WUHU21623XXSP,2013-06-20 08:10:00,
2013-06-20 01:15:00,49.8,25.1,30.08,South,180,0.0,0.0,38,0.00,,,0.00,WUHU21623XXSP,2013-06-20 08:15:00,
2013-06-20 01:20:00,49.6,24.9,30.08,SE,135,0.0,0.0,38,0.00,,,0.00,WUHU21623XXSP,2013-06-20 08:20:00,
2013-06-20 01:25:00,49.5,25.4,30.08,ESE,112,0.0,0.0,39,0.00,,,0.00,WUHU21623XXSP,2013-06-20 08:25:00,
2013-06-20 01:30:00,49.3,25.3,30.08,SW,225,0.0,0.0,39,0.00,,,0.00,WUHU21623XXSP,2013-06-20 08:30:00,
2013-06-20 01:35:00,48.9,24.9,30.08,West,270,0.0,0.0,39,0.00,,,0.00,WUHU21623XXSP,2013-06-20 08:35:00,
2013-06-20 01:40:00,48.7,24.8,30.08,WNW,292,0.0,0.0,39,0.00,,,0.00,WUHU21623XXSP,2013-06-20 08:40:00,
2013-06-20 01:48:00,48.4,24.5,30.08,NW,315,0.0,0.0,39,0.00,,,0.00,WUHU21623XXSP,2013-06-20 08:48:00,
2013-06-20 01:53:00,48.2,25.1,30.08,NW,315,0.0,0.0,40,0.00,,,0.00,WUHU21623XXSP,2013-06-20 08:53:00,
2013-06-20 01:58:00,48.0,24.8,30.08,NW,315,0.0,0.0,40,0.00,,,0.00,WUHU21623XXSP,2013-06-20 08:58:00,
2013-06-20 02:03:00,48.0,24.8,30.08,WNW,292,0.0,0.0,40,0.00,,,0.00,WUHU21623XXSP,2013-06-20 09:03:00,
2013-06-20 02:08:00,47.7,24.5,30.08,South,180,0.0,0.0,40,0.00,,,0.00,WUHU21623XXSP,2013-06-20 09:08:00,
2013-06-20 02:13:00,47.1,24.0,30.08,SSW,202,0.0,0.0,40,0.00,,,0.00,WUHU21623XXSP,2013-06-20 09:13:00,
2013-06-20 02:18:00,46.8,24.2,30.08,WSW,247,0.0,0.0,41,0.00,,,0.00,WUHU21623XXSP,2013-06-20 09:18:00,
2013-06-20 02:26:00,46.2,23.7,30.08,NNW,337,0.0,0.0,41,0.00,,,0.00,WUHU21623XXSP,2013-06-20 09:26:00,
2013-06-20 02:37:00,45.7,23.3,30.08,NW,315,0.0,0.0,41,0.00,,,0.00,WUHU21623XXSP,2013-06-20 09:37:00,
2013-06-20 02:43:00,45.3,23.5,30.08,NW,315,0.0,0.0,42,0.00,,,0.00,WUHU21623XXSP,2013-06-20 09:43:00,
2013-06-20 02:52:00,44.8,23.1,30.09,WNW,292,0.0,0.0,42,0.00,,,0.00,WUHU21623XXSP,2013-06-20 09:52:00,
2013-06-20 02:57:00,44.8,23.1,30.09,WNW,292,0.0,0.0,42,0.00,,,0.00,WUHU21623XXSP,2013-06-20 09:57:00,
2013-06-20 03:02:00,44.4,22.7,30.08,SSE,157,0.0,0.0,42,0.00,,,0.00,WUHU21623XXSP,2013-06-20 10:02:00,
2013-06-20 03:07:00,44.1,22.9,30.08,SW,225,0.0,0.0,43,0.00,,,0.00,WUHU21623XXSP,2013-06-20 10:07:00,
2013-06-20 03:13:00,43.5,22.4,30.08,SSW,202,0.0,0.0,43,0.00,,,0.00,WUHU21623XXSP,2013-06-20 10:13:00,
2013-06-20 03:20:00,43.3,22.2,30.08,South,180,0.0,0.0,43,0.00,,,0.00,WUHU21623XXSP,2013-06-20 10:20:00,
2013-06-20 03:25:00,43.2,22.6,30.08,South,180,0.0,0.0,44,0.00,,,0.00,WUHU21623XXSP,2013-06-20 10:25:00,
2013-06-20 03:30:00,43.0,22.4,30.08,South,180,0.0,0.0,44,0.00,,,0.00,WUHU21623XXSP,2013-06-20 10:30:00,
2013-06-20 03:35:00,42.6,22.1,30.08,South,180,0.0,0.0,44,0.00,,,0.00,WUHU21623XXSP,2013-06-20 10:35:00,
2013-06-20 03:40:00,42.4,21.9,30.08,South,180,0.0,0.0,44,0.00,,,0.00,WUHU21623XXSP,2013-06-20 10:40:00,
2013-06-20 03:46:00,42.1,22.1,30.08,SSE,157,0.0,0.0,45,0.00,,,0.00,WUHU21623XXSP,2013-06-20 10:46:00,
2013-06-20 03:57:00,41.5,21.6,30.08,ESE,112,0.0,0.0,45,0.00,,,0.00,WUHU21623XXSP,2013-06-20 10:57:00,
2013-06-20 04:02:00,41.5,21.6,30.08,ESE,112,0.0,0.0,45,0.00,,,0.00,WUHU21623XXSP,2013-06-20 11:02:00,
2013-06-20 04:07:00,41.0,21.3,30.08,ESE,112,0.0,0.0,45,0.00,,,0.00,WUHU21623XXSP,2013-06-20 11:07:00,
2013-06-20 04:13:00,40.8,20.9,30.08,ESE,112,0.0,0.0,45,0.00,,,0.00,WUHU21623XXSP,2013-06-20 11:13:00,
2013-06-20 04:18:00,40.6,20.8,30.09,ESE,112,0.0,0.0,45,0.00,,,0.00,WUHU21623XXSP,2013-06-20 11:18:00,
2013-06-20 04:30:00,40.1,20.8,30.08,ESE,112,0.0,0.0,46,0.00,,,0.00,WUHU21623XXSP,2013-06-20 11:30:00,
2013-06-20 04:37:00,39.9,20.7,30.09,ESE,112,0.0,0.0,46,0.00,,,0.00,WUHU21623XXSP,2013-06-20 11:37:00,
2013-06-20 04:42:00,39.7,20.5,30.09,ESE,112,0.0,0.0,46,0.00,,,0.00,WUHU21623XXSP,2013-06-20 11:42:00,
2013-06-20 04:47:00,39.6,20.5,30.09,SSE,157,0.0,0.0,46,0.00,,,0.00,WUHU21623XXSP,2013-06-20 11:47:00,
2013-06-20 04:52:00,39.4,20.7,30.08,SSE,157,0.0,0.0,47,0.00,,,0.00,WUHU21623XXSP,2013-06-20 11:52:00,
2013-06-20 04:57:00,39.4,20.7,30.08,SSE,157,0.0,0.0,47,0.00,,,0.00,WUHU21623XXSP,2013-06-20 11:57:00,
2013-06-20 05:02:00,39.4,20.7,30.09,SSE,157,0.0,0.0,47,0.00,,,0.00,WUHU21623XXSP,2013-06-20 12:02:00,
2013-06-20 05:07:00,39.0,20.4,30.09,SSW,202,0.0,0.0,47,0.00,,,0.00,WUHU21623XXSP,2013-06-20 12:07:00,
2013-06-20 05:12:00,39.0,20.4,30.09,South,180,0.0,0.0,47,0.00,,,0.00,WUHU21623XXSP,2013-06-20 12:12:00,
2013-06-20 05:19:00,38.8,20.7,30.09,SSE,157,0.0,0.0,48,0.00,,,0.00,WUHU21623XXSP,2013-06-20 12:19:00,
2013-06-20 05:26:00,38.5,20.9,30.09,SSW,202,0.0,0.0,49,0.00,,,0.00,WUHU21623XXSP,2013-06-20 12:26:00,
2013-06-20 05:41:00,38.1,20.6,30.10,NW,315,0.0,0.0,49,0.00,,,0.00,WUHU21623XXSP,2013-06-20 12:41:00,
2013-06-20 05:49:00,37.9,20.4,30.10,NW,315,0.0,0.0,49,0.00,,,0.00,WUHU21623XXSP,2013-06-20 12:49:00,
2013-06-20 05:57:00,37.8,20.3,30.10,NW,315,0.0,0.0,49,0.00,,,0.00,WUHU21623XXSP,2013-06-20 12:57:00,
2013-06-20 06:02:00,37.6,20.1,30.10,NW,315,0.0,0.0,49,0.00,,,0.00,WUHU21623XXSP,2013-06-20 13:02:00,
2013-06-20 06:11:00,37.4,20.0,30.10,WSW,247,0.0,0.0,49,0.00,,,0.00,WUHU21623XXSP,2013-06-20 13:11:00,
2013-06-20 06:23:00,37.4,20.5,30.10,WSW,247,0.0,0.0,50,0.00,,,0.00,WUHU21623XXSP,2013-06-20 13:23:00,
2013-06-20 06:30:00,37.4,20.5,30.10,WSW,247,0.0,0.0,50,0.00,,,0.00,WUHU21623XXSP,2013-06-20 13:30:00,
2013-06-20 06:39:00,37.8,20.8,30.10,WNW,292,0.0,0.0,50,0.00,,,0.00,WUHU21623XXSP,2013-06-20 13:39:00,
2013-06-20 06:44:00,37.9,20.8,30.10,WNW,292,0.0,0.0,51,0.00,,,0.00,WUHU21623XXSP,2013-06-20 13:44:00,
2013-06-20 06:49:00,38.3,21.6,30.10,WNW,292,0.0,0.0,51,0.00,,,0.00,WUHU21623XXSP,2013-06-20 13:49:00,
2013-06-20 06:57:00,38.8,22.2,30.10,WNW,292,0.0,0.0,51,0.00,,,0.00,WUHU21623XXSP,2013-06-20 13:57:00,
2013-06-20 07:02:00,39.4,23.1,30.10,West,270,0.0,0.0,52,0.00,,,0.00,WUHU21623XXSP,2013-06-20 14:02:00,
2013-06-20 07:07:00,39.7,23.4,30.10,WNW,292,0.0,0.0,52,0.00,,,0.00,WUHU21623XXSP,2013-06-20 14:07:00,
2013-06-20 07:15:00,41.0,24.0,30.10,South,180,0.0,0.0,51,0.00,,,0.00,WUHU21623XXSP,2013-06-20 14:15:00,
2013-06-20 07:23:00,41.7,24.7,30.10,SW,225,0.0,0.0,51,0.00,,,0.00,WUHU21623XXSP,2013-06-20 14:23:00,
2013-06-20 07:28:00,41.9,24.6,30.10,West,270,0.0,0.0,50,0.00,,,0.00,WUHU21623XXSP,2013-06-20 14:28:00,
2013-06-20 07:38:00,42.4,25.2,30.10,NNE,22,0.0,0.0,50,0.00,,,0.00,WUHU21623XXSP,2013-06-20 14:38:00,
2013-06-20 07:51:00,43.3,26.0,30.10,SSE,157,0.0,0.0,50,0.00,,,0.00,WUHU21623XXSP,2013-06-20 14:51:00,
2013-06-20 07:56:00,43.3,26.0,30.10,SSE,157,0.0,0.0,50,0.00,,,0.00,WUHU21623XXSP,2013-06-20 14:56:00,
2013-06-20 08:23:00,46.0,27.4,30.09,South,180,0.0,0.0,48,0.00,,,0.00,WUHU21623XXSP,2013-06-20 15:23:00,
2013-06-20 08:40:00,47.3,27.9,30.09,WNW,292,0.0,0.0,47,0.00,,,0.00,WUHU21623XXSP,2013-06-20 15:40:00,
2013-06-20 08:50:00,48.0,28.1,30.09,North,0,0.0,0.0,46,0.00,,,0.00,WUHU21623XXSP,2013-06-20 15:50:00,
2013-06-20 09:15:00,50.4,28.6,30.08,NNW,337,0.0,0.0,43,0.00,,,0.00,WUHU21623XXSP,2013-06-20 16:15:00,
2013-06-20 09:20:00,50.7,28.9,30.08,NW,315,0.0,0.0,43,0.00,,,0.00,WUHU21623XXSP,2013-06-20 16:20:00,
2013-06-20 09:25:00,51.3,29.4,30.07,NW,315,0.0,0.0,42,0.00,,,0.00,WUHU21623XXSP,2013-06-20 16:25:00,
2013-06-20 09:32:00,51.8,29.3,30.07,ESE,112,0.0,0.0,42,0.00,,,0.00,WUHU21623XXSP,2013-06-20 16:32:00,
2013-06-20 09:49:00,53.4,29.7,30.06,ENE,67,0.0,0.0,40,0.00,,,0.00,WUHU21623XXSP,2013-06-20 16:49:00,
2013-06-20 10:15:00,56.1,30.5,30.06,North,0,0.0,0.0,37,0.00,,,0.00,WUHU21623XXSP,2013-06-20 17:15:00,
2013-06-20 10:28:00,57.2,31.0,30.05,West,270,0.0,0.0,37,0.00,,,0.00,WUHU21623XXSP,2013-06-20 17:28:00,
2013-06-20 10:36:00,57.9,31.6,30.05,NNE,22,0.0,0.0,37,0.00,,,0.00,WUHU21623XXSP,2013-06-20 17:36:00,
2013-06-20 10:45:00,58.8,30.9,30.05,NNE,22,0.0,0.0,34,0.00,,,0.00,WUHU21623XXSP,2013-06-20 17:45:00,
2013-06-20 10:51:00,59.5,31.3,30.04,ENE,67,0.0,0.0,35,0.00,,,0.00,WUHU21623XXSP,2013-06-20 17:51:00,
2013-06-20 10:57:00,59.7,32.5,30.04,NNW,337,0.0,0.0,36,0.00,,,0.00,WUHU21623XXSP,2013-06-20 17:57:00,
2013-06-20 11:27:00,61.9,30.1,30.04,NNW,337,0.0,0.0,30,0.00,,,0.00,WUHU21623XXSP,2013-06-20 18:27:00,
2013-06-20 11:34:00,62.8,28.9,30.04,SE,135,0.0,0.0,29,0.00,,,0.00,WUHU21623XXSP,2013-06-20 18:34:00,
2013-06-20 12:02:00,65.3,31.2,30.03,SSE,157,0.0,0.0,28,0.00,,,0.00,WUHU21623XXSP,2013-06-20 19:02:00,
2013-06-20 12:07:00,65.7,33.5,30.04,SSW,202,0.0,0.0,30,0.00,,,0.00,WUHU21623XXSP,2013-06-20 19:07:00,
2013-06-20 12:12:00,66.4,32.1,30.03,NNW,337,0.0,0.0,28,0.00,,,0.00,WUHU21623XXSP,2013-06-20 19:12:00,
2013-06-20 12:21:00,67.3,29.9,30.03,WNW,292,1.8,1.8,25,0.00,,,0.00,WUHU21623XXSP,2013-06-20 19:21:00,
2013-06-20 12:30:00,68.2,29.6,30.03,NW,315,0.0,1.8,24,0.00,,,0.00,WUHU21623XXSP,2013-06-20 19:30:00,
2013-06-20 12:35:00,68.5,30.9,30.03,East,90,0.0,0.0,25,0.00,,,0.00,WUHU21623XXSP,2013-06-20 19:35:00,
2013-06-20 12:40:00,68.7,30.1,30.02,WNW,292,0.0,0.0,24,0.00,,,0.00,WUHU21623XXSP,2013-06-20 19:40:00,
2013-06-20 12:53:00,70.0,31.1,30.03,NW,315,2.7,2.7,24,0.00,,,0.00,WUHU21623XXSP,2013-06-20 19:53:00,
2013-06-20 12:58:00,70.3,30.4,30.03,SSE,157,6.7,6.7,23,0.00,,,0.00,WUHU21623XXSP,2013-06-20 19:58:00,
2013-06-20 13:04:00,70.5,31.6,30.02,WNW,292,0.0,6.7,24,0.00,,,0.00,WUHU21623XXSP,2013-06-20 20:04:00,
2013-06-20 13:09:00,70.7,30.6,30.02,SSW,202,0.0,0.0,23,0.00,,,0.00,WUHU21623XXSP,2013-06-20 20:09:00,
2013-06-20 13:19:00,71.1,31.0,30.03,NW,315,4.7,4.7,23,0.00,,,0.00,WUHU21623XXSP,2013-06-20 20:19:00,
2013-06-20 13:24:00,71.4,31.3,30.02,West,270,0.0,4.7,23,0.00,,,0.00,WUHU21623XXSP,2013-06-20 20:24:00,
2013-06-20 13:32:00,71.6,29.4,30.02,NW,315,5.1,5.1,21,0.00,,,0.00,WUHU21623XXSP,2013-06-20 20:32:00,
2013-06-20 13:42:00,72.9,30.5,30.01,NW,315,0.9,0.9,21,0.00,,,0.00,WUHU21623XXSP,2013-06-20 20:42:00,
2013-06-20 13:51:00,74.1,31.6,30.01,SW,225,8.9,8.9,21,0.00,,,0.00,WUHU21623XXSP,2013-06-20 20:51:00,
2013-06-20 13:56:00,74.7,31.9,30.02,NW,315,0.0,8.9,21,0.00,,,0.00,WUHU21623XXSP,2013-06-20 20:56:00,
2013-06-20 14:06:00,75.4,31.6,30.02,SSW,202,3.6,3.6,20,0.00,,,0.00,WUHU21623XXSP,2013-06-20 21:06:00,
2013-06-20 14:16:00,75.4,32.6,30.01,ESE,112,0.9,0.9,21,0.00,,,0.00,WUHU21623XXSP,2013-06-20 21:16:00,
2013-06-20 14:25:00,75.4,31.6,30.01,WSW,247,6.7,6.7,20,0.00,,,0.00,WUHU21623XXSP,2013-06-20 21:25:00,
2013-06-20 14:30:00,75.6,31.7,30.01,South,180,4.3,6.7,20,0.00,,,0.00,WUHU21623XXSP,2013-06-20 21:30:00,
2013-06-20 14:35:00,75.7,31.9,30.01,NNW,337,6.9,6.9,20,0.00,,,0.00,WUHU21623XXSP,2013-06-20 21:35:00,
2013-06-20 14:40:00,75.6,31.7,30.02,NW,315,0.0,6.9,20,0.00,,,0.00,WUHU21623XXSP,2013-06-20 21:40:00,
2013-06-20 14:46:00,75.9,32.0,30.01,WSW,247,1.6,1.6,20,0.00,,,0.00,WUHU21623XXSP,2013-06-20 21:46:00,
2013-06-20 14:51:00,76.1,32.2,30.02,NNE,22,0.0,1.6,20,0.00,,,0.00,WUHU21623XXSP,2013-06-20 21:51:00,
2013-06-20 14:56:00,75.9,32.2,30.01,NNE,22,0.0,0.0,20,0.00,,,0.00,WUHU21623XXSP,2013-06-20 21:56:00,
2013-06-20 15:01:00,75.9,32.0,30.02,SSW,202,2.9,2.9,20,0.00,,,0.00,WUHU21623XXSP,2013-06-20 22:01:00,
2013-06-20 15:06:00,75.9,32.0,30.02,SSE,157,3.1,3.1,20,0.00,,,0.00,WUHU21623XXSP,2013-06-20 22:06:00,
2013-06-20 15:16:00,75.4,31.6,30.01,WNW,292,3.6,5.1,20,0.00,,,0.00,WUHU21623XXSP,2013-06-20 22:16:00,
2013-06-20 15:21:00,75.6,31.7,30.02,WNW,292,10.7,10.7,20,0.00,,,0.00,WUHU21623XXSP,2013-06-20 22:21:00,
2013-06-20 15:31:00,75.7,31.9,30.01,WNW,292,4.0,4.0,20,0.00,,,0.00,WUHU21623XXSP,2013-06-20 22:31:00,
2013-06-20 15:38:00,75.7,31.9,30.01,NW,315,6.9,6.9,20,0.00,,,0.00,WUHU21623XXSP,2013-06-20 22:38:00,
2013-06-20 15:43:00,75.7,31.9,30.01,NW,315,6.9,6.9,20,0.00,,,0.00,WUHU21623XXSP,2013-06-20 22:43:00,
2013-06-20 15:48:00,75.7,31.9,30.02,WNW,292,3.8,6.9,20,0.00,,,0.00,WUHU21623XXSP,2013-06-20 22:48:00,
2013-06-20 15:55:00,75.7,32.9,30.02,WNW,292,9.2,9.2,21,0.00,,,0.00,WUHU21623XXSP,2013-06-20 22:55:00,
2013-06-20 16:06:00,75.7,32.9,30.02,West,270,6.3,6.3,21,0.00,,,0.00,WUHU21623XXSP,2013-06-20 23:06:00,
2013-06-20 16:12:00,75.4,31.6,30.02,NNW,337,2.9,6.3,20,0.00,,,0.00,WUHU21623XXSP,2013-06-20 23:12:00,
2013-06-20 16:17:00,75.4,31.6,30.02,NNW,337,2.9,2.9,21,0.00,,,0.00,WUHU21623XXSP,2013-06-20 23:17:00,
2013-06-20 16:25:00,75.4,32.6,30.02,NNE,22,2.5,4.0,21,0.00,,,0.00,WUHU21623XXSP,2013-06-20 23:25:00,
2013-06-20 16:31:00,75.0,32.3,30.02,North,0,3.4,3.4,21,0.00,,,0.00,WUHU21623XXSP,2013-06-20 23:31:00,
2013-06-20 16:36:00,74.8,32.2,30.02,WNW,292,3.6,3.6,21,0.00,,,0.00,WUHU21623XXSP,2013-06-20 23:36:00,
2013-06-20 16:41:00,74.8,32.2,30.02,West,270,0.0,3.6,21,0.00,,,0.00,WUHU21623XXSP,2013-06-20 23:41:00,
2013-06-20 16:46:00,74.8,32.2,30.03,NNW,337,1.3,1.3,21,0.00,,,0.00,WUHU21623XXSP,2013-06-20 23:46:00,
2013-06-20 16:51:00,74.7,32.0,30.03,West,270,3.8,3.8,21,0.00,,,0.00,WUHU21623XXSP,2013-06-20 23:51:00,
2013-06-20 16:57:00,74.5,31.9,30.03,WNW,292,4.3,4.3,21,0.00,,,0.00,WUHU21623XXSP,2013-06-20 23:57:00,
2013-06-20 17:10:00,74.1,32.6,30.03,SW,225,2.2,2.2,22,0.00,,,0.00,WUHU21623XXSP,2013-06-21 00:10:00,
2013-06-20 17:15:00,73.9,32.5,30.03,West,270,7.6,7.6,22,0.00,,,0.00,WUHU21623XXSP,2013-06-21 00:15:00,
2013-06-20 17:23:00,73.8,31.3,30.03,WSW,247,0.0,7.6,21,0.00,,,0.00,WUHU21623XXSP,2013-06-21 00:23:00,
2013-06-20 17:28:00,73.8,32.3,30.03,SW,225,4.5,4.5,22,0.00,,,0.00,WUHU21623XXSP,2013-06-21 00:28:00,
2013-06-20 17:33:00,73.6,31.2,30.02,WNW,292,8.1,8.1,21,0.00,,,0.00,WUHU21623XXSP,2013-06-21 00:33:00,
2013-06-20 17:38:00,73.2,31.9,30.02,West,270,1.6,8.1,22,0.00,,,0.00,WUHU21623XXSP,2013-06-21 00:38:00,
2013-06-20 17:43:00,73.2,31.9,30.02,WNW,292,3.6,3.6,22,0.00,,,0.00,WUHU21623XXSP,2013-06-21 00:43:00,
2013-06-20 17:50:00,73.0,32.7,30.02,NNW,337,0.0,0.0,23,0.00,,,0.00,WUHU21623XXSP,2013-06-21 00:50:00,
2013-06-20 17:59:00,72.7,32.4,30.03,WNW,292,6.0,6.0,23,0.00,,,0.00,WUHU21623XXSP,2013-06-21 00:59:00,
2013-06-20 18:04:00,72.5,32.3,30.03,WSW,247,2.5,6.0,23,0.00,,,0.00,WUHU21623XXSP,2013-06-21 01:04:00,
2013-06-20 18:09:00,72.5,32.3,30.03,WNW,292,0.0,2.5,23,0.00,,,0.00,WUHU21623XXSP,2013-06-21 01:09:00,
2013-06-20 18:14:00,72.3,32.1,30.03,ENE,67,3.6,4.3,23,0.00,,,0.00,WUHU21623XXSP,2013-06-21 01:14:00,
2013-06-20 18:20:00,72.0,31.8,30.03,North,0,0.7,3.6,23,0.00,,,0.00,WUHU21623XXSP,2013-06-21 01:20:00,
2013-06-20 18:25:00,71.8,31.6,30.03,SW,225,3.1,3.1,23,0.00,,,0.00,WUHU21623XXSP,2013-06-21 01:25:00,
2013-06-20 18:31:00,71.4,31.3,30.04,NNW,337,0.0,3.1,23,0.00,,,0.00,WUHU21623XXSP,2013-06-21 01:31:00,
2013-06-20 18:37:00,71.2,32.2,30.04,NNE,22,0.0,0.0,24,0.00,,,0.00,WUHU21623XXSP,2013-06-21 01:37:00,
2013-06-20 18:50:00,70.5,31.6,30.04,West,270,6.0,6.0,24,0.00,,,0.00,WUHU21623XXSP,2013-06-21 01:50:00,
2013-06-20 18:55:00,70.3,31.4,30.04,NW,315,0.0,6.0,24,0.00,,,0.00,WUHU21623XXSP,2013-06-21 01:55:00,
2013-06-20 19:00:00,70.2,31.4,30.04,NW,315,0.0,0.0,24,0.00,,,0.00,WUHU21623XXSP,2013-06-21 02:00:00,
2013-06-20 19:07:00,70.0,31.1,30.04,SSW,202,7.4,7.4,24,0.00,,,0.00,WUHU21623XXSP,2013-06-21 02:07:00,
2013-06-20 19:14:00,69.6,30.8,30.05,WNW,292,0.9,7.4,24,0.00,,,0.00,WUHU21623XXSP,2013-06-21 02:14:00,
2013-06-20 19:19:00,69.4,30.7,30.04,North,0,0.0,0.9,25,0.00,,,0.00,WUHU21623XXSP,2013-06-21 02:19:00,
2013-06-20 19:24:00,69.3,31.5,30.05,West,270,2.5,2.5,25,0.00,,,0.00,WUHU21623XXSP,2013-06-21 02:24:00,
2013-06-20 19:29:00,68.9,31.2,30.05,West,270,4.5,4.5,25,0.00,,,0.00,WUHU21623XXSP,2013-06-21 02:29:00,
2013-06-20 19:35:00,68.9,32.2,30.05,WNW,292,0.0,4.5,26,0.00,,,0.00,WUHU21623XXSP,2013-06-21 02:35:00,
2013-06-20 19:40:00,68.7,31.1,30.05,NW,315,0.0,0.0,25,0.00,,,0.00,WUHU21623XXSP,2013-06-21 02:40:00,
2013-06-20 19:46:00,68.4,30.8,30.05,West,270,0.0,0.0,25,0.00,,,0.00,WUHU21623XXSP,2013-06-21 02:46:00,
2013-06-20 19:51:00,68.0,30.6,30.06,South,180,2.5,2.5,25,0.00,,,0.00,WUHU21623XXSP,2013-06-21 02:51:00,
2013-06-20 19:59:00,67.8,31.3,30.06,WNW,292,0.0,2.5,26,0.00,,,0.00,WUHU21623XXSP,2013-06-21 02:59:00,
2013-06-20 20:05:00,67.3,30.8,30.06,SSW,202,0.0,0.0,26,0.00,,,0.00,WUHU21623XXSP,2013-06-21 03:05:00,
2013-06-20 20:10:00,67.1,30.7,30.06,WNW,292,0.0,0.0,26,0.00,,,0.00,WUHU21623XXSP,2013-06-21 03:10:00,
2013-06-20 20:15:00,66.7,30.4,30.06,NW,315,0.0,0.0,26,0.00,,,0.00,WUHU21623XXSP,2013-06-21 03:15:00,
2013-06-20 20:20:00,66.2,31.0,30.06,WNW,292,0.0,0.0,27,0.00,,,0.00,WUHU21623XXSP,2013-06-21 03:20:00,
2013-06-20 20:27:00,66.0,30.8,30.06,WNW,292,0.0,0.0,27,0.00,,,0.00,WUHU21623XXSP,2013-06-21 03:27:00,
2013-06-20 20:32:00,65.5,30.3,30.06,NNW,337,0.0,0.0,27,0.00,,,0.00,WUHU21623XXSP,2013-06-21 03:32:00,
2013-06-20 20:37:00,65.3,30.2,30.07,WNW,292,0.0,0.0,27,0.00,,,0.00,WUHU21623XXSP,2013-06-21 03:37:00,
2013-06-20 20:42:00,64.6,29.7,30.07,SW,225,0.0,0.0,27,0.00,,,0.00,WUHU21623XXSP,2013-06-21 03:42:00,
2013-06-20 20:47:00,64.2,29.5,30.07,SW,225,0.0,0.0,27,0.00,,,0.00,WUHU21623XXSP,2013-06-21 03:47:00,
2013-06-20 20:52:00,64.0,29.1,30.07,WNW,292,0.0,0.0,27,0.00,,,0.00,WUHU21623XXSP,2013-06-21 03:52:00,
2013-06-20 20:57:00,63.7,28.8,30.07,NW,315,0.0,0.0,27,0.00,,,0.00,WUHU21623XXSP,2013-06-21 03:57:00,
2013-06-20 21:05:00,63.1,29.3,30.07,North,0,0.0,0.0,28,0.00,,,0.00,WUHU21623XXSP,2013-06-21 04:05:00,
2013-06-20 21:06:00,63.1,29.3,30.07,North,0,0.0,0.0,28,0.00,,,0.00,WUHU21623XXSP,2013-06-21 04:06:00,
2013-06-20 21:07:00,63.1,29.3,30.07,North,0,0.0,0.0,28,0.00,,,0.00,WUHU21623XXSP,2013-06-21 04:07:00,
2013-06-20 21:12:00,62.8,28.9,30.07,WNW,292,0.0,0.0,28,0.00,,,0.00,WUHU21623XXSP,2013-06-21 04:12:00,
2013-06-20 21:17:00,62.4,29.6,30.07,SSW,202,0.0,0.0,29,0.00,,,0.00,WUHU21623XXSP,2013-06-21 04:17:00,
2013-06-20 21:22:00,61.5,28.8,30.07,NE,45,0.0,0.0,29,0.00,,,0.00,WUHU21623XXSP,2013-06-21 04:22:00,
2013-06-20 21:33:00,60.6,28.0,30.08,NE,45,0.0,0.0,29,0.00,,,0.00,WUHU21623XXSP,2013-06-21 04:33:00,
2013-06-20 21:39:00,60.3,28.7,30.08,SE,135,0.0,0.0,30,0.00,,,0.00,WUHU21623XXSP,2013-06-21 04:39:00,
2013-06-20 21:44:00,60.1,28.5,30.08,NNE,22,0.0,0.0,30,0.00,,,0.00,WUHU21623XXSP,2013-06-21 04:44:00,
2013-06-20 21:49:00,59.5,29.0,30.08,North,0,0.0,0.0,31,0.00,,,0.00,WUHU21623XXSP,2013-06-21 04:49:00,
2013-06-20 21:54:00,59.5,30.2,30.09,NE,45,0.0,0.0,33,0.00,,,0.00,WUHU21623XXSP,2013-06-21 04:54:00,
2013-06-20 22:01:00,59.5,30.2,30.09,NE,45,0.0,0.0,33,0.00,,,0.00,WUHU21623XXSP,2013-06-21 05:01:00,
2013-06-20 22:09:00,59.2,30.6,30.09,NNE,22,0.0,0.0,34,0.00,,,0.00,WUHU21623XXSP,2013-06-21 05:09:00,
2013-06-20 22:14:00,59.2,30.6,30.09,NE,45,0.0,0.0,34,0.00,,,0.00,WUHU21623XXSP,2013-06-21 05:14:00,
2013-06-20 22:19:00,59.0,30.5,30.09,NNE,22,0.0,0.0,34,0.00,,,0.00,WUHU21623XXSP,2013-06-21 05:19:00,
2013-06-20 22:24:00,58.8,30.3,30.09,NNE,22,0.0,0.0,35,0.00,,,0.00,WUHU21623XXSP,2013-06-21 05:24:00,
2013-06-20 22:33:00,58.6,30.9,30.09,ENE,67,0.0,0.0,35,0.00,,,0.00,WUHU21623XXSP,2013-06-21 05:33:00,
2013-06-20 22:39:00,58.5,30.7,30.09,NE,45,0.0,0.0,35,0.00,,,0.00,WUHU21623XXSP,2013-06-21 05:39:00,
2013-06-20 22:44:00,58.3,29.8,30.09,NNE,22,0.0,0.0,34,0.00,,,0.00,WUHU21623XXSP,2013-06-21 05:44:00,
2013-06-20 22:50:00,58.1,30.4,30.09,North,0,0.0,0.0,35,0.00,,,0.00,WUHU21623XXSP,2013-06-21 05:50:00,
2013-06-20 22:55:00,58.1,30.4,30.09,North,0,0.0,0.0,35,0.00,,,0.00,WUHU21623XXSP,2013-06-21 05:55:00,
2013-06-20 23:00:00,57.9,30.2,30.09,SE,135,0.0,0.0,35,0.00,,,0.00,WUHU21623XXSP,2013-06-21 06:00:00,
2013-06-20 23:05:00,57.9,30.2,30.09,NW,315,2.9,2.9,35,0.00,,,0.00,WUHU21623XXSP,2013-06-21 06:05:00,
2013-06-20 23:10:00,57.7,30.1,30.09,WNW,292,0.0,2.9,35,0.00,,,0.00,WUHU21623XXSP,2013-06-21 06:10:00,
2013-06-20 23:15:00,57.4,29.7,30.10,North,0,0.0,0.0,35,0.00,,,0.00,WUHU21623XXSP,2013-06-21 06:15:00,
2013-06-20 23:22:00,56.8,29.2,30.10,South,180,0.0,0.0,35,0.00,,,0.00,WUHU21623XXSP,2013-06-21 06:22:00,
2013-06-20 23:28:00,56.5,29.6,30.10,WNW,292,0.0,0.0,36,0.00,,,0.00,WUHU21623XXSP,2013-06-21 06:28:00,
2013-06-20 23:33:00,56.1,29.3,30.10,NNW,337,0.0,0.0,36,0.00,,,0.00,WUHU21623XXSP,2013-06-21 06:33:00,
2013-06-20 23:38:00,55.9,29.1,30.10,NNW,337,0.0,0.0,36,0.00,,,0.00,WUHU21623XXSP,2013-06-21 06:38:00,
2013-06-20 23:43:00,55.4,28.7,30.10,North,0,0.0,0.0,36,0.00,,,0.00,WUHU21623XXSP,2013-06-21 06:43:00,
2013-06-20 23:48:00,55.2,28.5,30.10,North,0,0.0,0.0,36,0.00,,,0.00,WUHU21623XXSP,2013-06-21 06:48:00,
2013-06-20 23:58:00,54.7,28.7,30.10,North,0,0.0,0.0,37,0.00,,,0.00,WUHU21623XXSP,2013-06-21 06:58:00,